sensor_id;sensor_type;location;lat;lon;timestamp;P1;durP1;ratioP1;P2;durP2;ratioP2
16193;SDS011;8204;53.582;10.080;2023-10-08T00:02:05;10.23;;;4.10;;
16193;SDS011;8204;53.582;10.080;2023-10-08T00:04:33;7.07;;;4.47;;
16193;SDS011;8204;53.582;10.080;2023-10-08T00:07:02;11.47;;;5.13;;
16193;SDS011;8204;53.582;10.080;2023-10-08T00:09:34;9.73;;;5.37;;
16193;SDS011;8204;53.582;10.080;2023-10-08T00:12:03;9.90;;;4.70;;
16193;SDS011;8204;53.582;10.080;2023-10-08T00:14:29;7.37;;;4.40;;
16193;SDS011;8204;53.582;10.080;2023-10-08T00:16:54;10.63;;;6.37;;
16193;SDS011;8204;53.582;10.080;2023-10-08T00:19:22;8.70;;;4.73;;
16193;SDS011;8204;53.582;10.080;2023-10-08T00:21:47;7.03;;;5.70;;
16193;SDS011;8204;53.582;10.080;2023-10-08T00:24:14;9.80;;;5.60;;
16193;SDS011;8204;53.582;10.080;2023-10-08T00:26:39;8.03;;;4.67;;
16193;SDS011;8204;53.582;10.080;2023-10-08T00:29:05;10.90;;;5.57;;
16193;SDS011;8204;53.582;10.080;2023-10-08T00:31:42;9.60;;;6.03;;
16193;SDS011;8204;53.582;10.080;2023-10-08T00:34:10;12.83;;;5.93;;
16193;SDS011;8204;53.582;10.080;2023-10-08T00:36:38;8.23;;;6.33;;
16193;SDS011;8204;53.582;10.080;2023-10-08T00:39:04;9.33;;;5.90;;
16193;SDS011;8204;53.582;10.080;2023-10-08T00:41:42;6.80;;;6.00;;
16193;SDS011;8204;53.582;10.080;2023-10-08T00:44:11;10.23;;;6.30;;
16193;SDS011;8204;53.582;10.080;2023-10-08T00:46:39;7.40;;;5.83;;
16193;SDS011;8204;53.582;10.080;2023-10-08T00:49:12;14.50;;;6.60;;
16193;SDS011;8204;53.582;10.080;2023-10-08T00:51:49;10.00;;;5.87;;
16193;SDS011;8204;53.582;10.080;2023-10-08T00:54:25;12.57;;;6.13;;
16193;SDS011;8204;53.582;10.080;2023-10-08T00:56:53;12.30;;;6.83;;
16193;SDS011;8204;53.582;10.080;2023-10-08T00:59:22;8.53;;;5.70;;
16193;SDS011;8204;53.582;10.080;2023-10-08T01:01:49;9.33;;;5.00;;
16193;SDS011;8204;53.582;10.080;2023-10-08T01:04:24;10.83;;;5.53;;
16193;SDS011;8204;53.582;10.080;2023-10-08T01:06:54;8.77;;;4.93;;
16193;SDS011;8204;53.582;10.080;2023-10-08T01:09:29;10.23;;;5.17;;
16193;SDS011;8204;53.582;10.080;2023-10-08T01:12:33;8.50;;;4.73;;
16193;SDS011;8204;53.582;10.080;2023-10-08T01:14:58;9.43;;;4.80;;
16193;SDS011;8204;53.582;10.080;2023-10-08T01:17:38;5.27;;;4.77;;
16193;SDS011;8204;53.582;10.080;2023-10-08T01:20:14;10.40;;;4.93;;
16193;SDS011;8204;53.582;10.080;2023-10-08T01:23:00;10.70;;;4.73;;
16193;SDS011;8204;53.582;10.080;2023-10-08T01:25:35;9.60;;;4.17;;
16193;SDS011;8204;53.582;10.080;2023-10-08T01:28:01;9.53;;;4.40;;
16193;SDS011;8204;53.582;10.080;2023-10-08T01:30:33;8.03;;;3.87;;
16193;SDS011;8204;53.582;10.080;2023-10-08T01:33:05;14.33;;;4.63;;
16193;SDS011;8204;53.582;10.080;2023-10-08T01:35:34;8.53;;;4.10;;
16193;SDS011;8204;53.582;10.080;2023-10-08T01:38:00;9.73;;;4.23;;
16193;SDS011;8204;53.582;10.080;2023-10-08T01:40:26;9.23;;;4.90;;
16193;SDS011;8204;53.582;10.080;2023-10-08T01:42:51;7.03;;;4.00;;
16193;SDS011;8204;53.582;10.080;2023-10-08T01:45:18;7.10;;;4.87;;
16193;SDS011;8204;53.582;10.080;2023-10-08T01:47:44;7.73;;;3.33;;
16193;SDS011;8204;53.582;10.080;2023-10-08T01:50:10;9.90;;;4.67;;
16193;SDS011;8204;53.582;10.080;2023-10-08T01:52:50;4.80;;;3.33;;
16193;SDS011;8204;53.582;10.080;2023-10-08T01:55:19;6.13;;;4.47;;
16193;SDS011;8204;53.582;10.080;2023-10-08T01:57:54;7.20;;;4.73;;
16193;SDS011;8204;53.582;10.080;2023-10-08T02:00:19;6.47;;;3.40;;
16193;SDS011;8204;53.582;10.080;2023-10-08T02:02:49;6.93;;;3.27;;
16193;SDS011;8204;53.582;10.080;2023-10-08T02:05:15;7.17;;;3.17;;
16193;SDS011;8204;53.582;10.080;2023-10-08T02:07:44;5.07;;;3.50;;
16193;SDS011;8204;53.582;10.080;2023-10-08T02:10:11;8.57;;;4.20;;
16193;SDS011;8204;53.582;10.080;2023-10-08T02:12:39;5.50;;;3.80;;
16193;SDS011;8204;53.582;10.080;2023-10-08T02:15:05;5.43;;;3.10;;
16193;SDS011;8204;53.582;10.080;2023-10-08T02:17:36;4.47;;;2.60;;
16193;SDS011;8204;53.582;10.080;2023-10-08T02:20:02;7.43;;;3.43;;
16193;SDS011;8204;53.582;10.080;2023-10-08T02:22:30;6.73;;;2.80;;
16193;SDS011;8204;53.582;10.080;2023-10-08T02:24:56;5.53;;;2.83;;
16193;SDS011;8204;53.582;10.080;2023-10-08T02:27:26;5.27;;;2.87;;
16193;SDS011;8204;53.582;10.080;2023-10-08T02:29:54;4.07;;;2.50;;
16193;SDS011;8204;53.582;10.080;2023-10-08T02:32:21;4.10;;;2.60;;
16193;SDS011;8204;53.582;10.080;2023-10-08T02:34:47;7.90;;;3.50;;
16193;SDS011;8204;53.582;10.080;2023-10-08T02:37:14;7.33;;;3.30;;
16193;SDS011;8204;53.582;10.080;2023-10-08T02:39:40;6.70;;;3.57;;
16193;SDS011;8204;53.582;10.080;2023-10-08T02:42:05;6.63;;;3.40;;
16193;SDS011;8204;53.582;10.080;2023-10-08T02:44:36;4.97;;;3.87;;
16193;SDS011;8204;53.582;10.080;2023-10-08T02:47:07;9.93;;;3.37;;
16193;SDS011;8204;53.582;10.080;2023-10-08T02:49:34;7.83;;;3.90;;
16193;SDS011;8204;53.582;10.080;2023-10-08T02:52:00;5.23;;;2.63;;
16193;SDS011;8204;53.582;10.080;2023-10-08T02:54:25;6.60;;;3.00;;
16193;SDS011;8204;53.582;10.080;2023-10-08T02:56:57;5.77;;;3.13;;
16193;SDS011;8204;53.582;10.080;2023-10-08T02:59:28;8.80;;;3.37;;
16193;SDS011;8204;53.582;10.080;2023-10-08T03:01:54;4.17;;;2.70;;
16193;SDS011;8204;53.582;10.080;2023-10-08T03:04:22;5.63;;;3.00;;
16193;SDS011;8204;53.582;10.080;2023-10-08T03:06:49;9.70;;;3.30;;
16193;SDS011;8204;53.582;10.080;2023-10-08T03:09:21;5.93;;;2.23;;
16193;SDS011;8204;53.582;10.080;2023-10-08T03:11:51;4.83;;;2.60;;
16193;SDS011;8204;53.582;10.080;2023-10-08T03:14:18;4.97;;;2.80;;
16193;SDS011;8204;53.582;10.080;2023-10-08T03:16:54;12.43;;;3.00;;
16193;SDS011;8204;53.582;10.080;2023-10-08T03:19:32;4.20;;;2.30;;
16193;SDS011;8204;53.582;10.080;2023-10-08T03:21:57;7.63;;;2.67;;
16193;SDS011;8204;53.582;10.080;2023-10-08T03:24:23;5.03;;;2.73;;
16193;SDS011;8204;53.582;10.080;2023-10-08T03:27:09;7.27;;;3.10;;
16193;SDS011;8204;53.582;10.080;2023-10-08T03:29:40;6.57;;;3.27;;
16193;SDS011;8204;53.582;10.080;2023-10-08T03:32:10;3.13;;;2.17;;
16193;SDS011;8204;53.582;10.080;2023-10-08T03:34:43;3.97;;;2.77;;
16193;SDS011;8204;53.582;10.080;2023-10-08T03:37:11;9.57;;;2.47;;
16193;SDS011;8204;53.582;10.080;2023-10-08T03:39:45;3.20;;;2.23;;
16193;SDS011;8204;53.582;10.080;2023-10-08T03:42:21;6.30;;;2.30;;
16193;SDS011;8204;53.582;10.080;2023-10-08T03:44:55;6.90;;;2.90;;
16193;SDS011;8204;53.582;10.080;2023-10-08T03:47:21;6.97;;;2.90;;
16193;SDS011;8204;53.582;10.080;2023-10-08T03:49:51;6.63;;;2.63;;
16193;SDS011;8204;53.582;10.080;2023-10-08T03:52:17;3.90;;;2.87;;
16193;SDS011;8204;53.582;10.080;2023-10-08T03:54:49;6.47;;;3.33;;
16193;SDS011;8204;53.582;10.080;2023-10-08T03:57:39;6.47;;;2.90;;
16193;SDS011;8204;53.582;10.080;2023-10-08T04:00:10;6.00;;;3.27;;
16193;SDS011;8204;53.582;10.080;2023-10-08T04:02:45;4.27;;;2.47;;
16193;SDS011;8204;53.582;10.080;2023-10-08T04:05:21;3.97;;;1.93;;
16193;SDS011;8204;53.582;10.080;2023-10-08T04:07:52;8.20;;;2.83;;
16193;SDS011;8204;53.582;10.080;2023-10-08T04:10:25;8.53;;;2.90;;
16193;SDS011;8204;53.582;10.080;2023-10-08T04:13:03;3.70;;;2.43;;
16193;SDS011;8204;53.582;10.080;2023-10-08T04:15:40;5.90;;;2.80;;
16193;SDS011;8204;53.582;10.080;2023-10-08T04:18:08;7.37;;;2.97;;
16193;SDS011;8204;53.582;10.080;2023-10-08T04:20:35;7.37;;;2.63;;
16193;SDS011;8204;53.582;10.080;2023-10-08T04:23:04;4.07;;;2.03;;
16193;SDS011;8204;53.582;10.080;2023-10-08T04:25:43;4.60;;;2.13;;
16193;SDS011;8204;53.582;10.080;2023-10-08T04:28:09;5.83;;;2.50;;
16193;SDS011;8204;53.582;10.080;2023-10-08T04:30:44;3.77;;;2.10;;
16193;SDS011;8204;53.582;10.080;2023-10-08T04:33:10;3.83;;;2.27;;
16193;SDS011;8204;53.582;10.080;2023-10-08T04:35:39;5.40;;;2.20;;
16193;SDS011;8204;53.582;10.080;2023-10-08T04:38:17;3.07;;;2.77;;
16193;SDS011;8204;53.582;10.080;2023-10-08T04:40:46;6.67;;;2.50;;
16193;SDS011;8204;53.582;10.080;2023-10-08T04:43:18;4.17;;;2.43;;
16193;SDS011;8204;53.582;10.080;2023-10-08T04:45:53;5.50;;;2.23;;
16193;SDS011;8204;53.582;10.080;2023-10-08T04:48:19;9.87;;;2.17;;
16193;SDS011;8204;53.582;10.080;2023-10-08T04:50:49;4.13;;;2.57;;
16193;SDS011;8204;53.582;10.080;2023-10-08T04:53:27;7.67;;;2.37;;
16193;SDS011;8204;53.582;10.080;2023-10-08T04:55:58;5.77;;;2.03;;
16193;SDS011;8204;53.582;10.080;2023-10-08T04:58:30;3.27;;;2.13;;
16193;SDS011;8204;53.582;10.080;2023-10-08T05:00:58;4.03;;;2.07;;
16193;SDS011;8204;53.582;10.080;2023-10-08T05:03:46;5.43;;;3.97;;
16193;SDS011;8204;53.582;10.080;2023-10-08T05:06:25;4.87;;;2.83;;
16193;SDS011;8204;53.582;10.080;2023-10-08T05:09:12;3.80;;;2.17;;
16193;SDS011;8204;53.582;10.080;2023-10-08T05:11:38;4.40;;;2.60;;
16193;SDS011;8204;53.582;10.080;2023-10-08T05:14:16;3.83;;;2.40;;
16193;SDS011;8204;53.582;10.080;2023-10-08T05:16:58;5.93;;;3.00;;
16193;SDS011;8204;53.582;10.080;2023-10-08T05:19:43;6.67;;;2.70;;
16193;SDS011;8204;53.582;10.080;2023-10-08T05:22:27;3.67;;;1.77;;
16193;SDS011;8204;53.582;10.080;2023-10-08T05:24:53;3.90;;;2.00;;
16193;SDS011;8204;53.582;10.080;2023-10-08T05:27:39;2.10;;;1.63;;
16193;SDS011;8204;53.582;10.080;2023-10-08T05:33:02;2.80;;;1.87;;
16193;SDS011;8204;53.582;10.080;2023-10-08T05:35:29;3.50;;;2.30;;
16193;SDS011;8204;53.582;10.080;2023-10-08T05:38:07;3.17;;;1.63;;
16193;SDS011;8204;53.582;10.080;2023-10-08T05:40:54;9.63;;;2.57;;
16193;SDS011;8204;53.582;10.080;2023-10-08T05:43:29;5.30;;;2.23;;
16193;SDS011;8204;53.582;10.080;2023-10-08T05:46:14;7.37;;;2.50;;
16193;SDS011;8204;53.582;10.080;2023-10-08T05:48:46;4.87;;;2.87;;
16193;SDS011;8204;53.582;10.080;2023-10-08T05:51:33;8.40;;;2.80;;
16193;SDS011;8204;53.582;10.080;2023-10-08T05:54:21;5.17;;;2.60;;
16193;SDS011;8204;53.582;10.080;2023-10-08T05:56:55;8.00;;;2.50;;
16193;SDS011;8204;53.582;10.080;2023-10-08T05:59:38;9.40;;;2.73;;
16193;SDS011;8204;53.582;10.080;2023-10-08T06:02:26;3.47;;;2.07;;
16193;SDS011;8204;53.582;10.080;2023-10-08T06:04:54;3.83;;;2.57;;
16193;SDS011;8204;53.582;10.080;2023-10-08T06:07:38;3.30;;;2.67;;
16193;SDS011;8204;53.582;10.080;2023-10-08T06:10:19;4.97;;;2.27;;
16193;SDS011;8204;53.582;10.080;2023-10-08T06:13:02;4.63;;;2.53;;
16193;SDS011;8204;53.582;10.080;2023-10-08T06:15:36;3.23;;;2.30;;
16193;SDS011;8204;53.582;10.080;2023-10-08T06:18:25;3.17;;;2.50;;
16193;SDS011;8204;53.582;10.080;2023-10-08T06:20:52;3.73;;;1.90;;
16193;SDS011;8204;53.582;10.080;2023-10-08T06:23:24;2.57;;;2.07;;
16193;SDS011;8204;53.582;10.080;2023-10-08T06:25:51;6.57;;;4.80;;
16193;SDS011;8204;53.582;10.080;2023-10-08T06:28:24;5.17;;;2.90;;
16193;SDS011;8204;53.582;10.080;2023-10-08T06:30:51;3.50;;;2.47;;
16193;SDS011;8204;53.582;10.080;2023-10-08T06:33:24;8.10;;;3.33;;
16193;SDS011;8204;53.582;10.080;2023-10-08T06:35:56;8.37;;;4.00;;
16193;SDS011;8204;53.582;10.080;2023-10-08T06:38:32;5.93;;;2.87;;
16193;SDS011;8204;53.582;10.080;2023-10-08T06:40:58;4.53;;;2.50;;
16193;SDS011;8204;53.582;10.080;2023-10-08T06:43:34;5.67;;;2.20;;
16193;SDS011;8204;53.582;10.080;2023-10-08T06:46:03;5.17;;;2.30;;
16193;SDS011;8204;53.582;10.080;2023-10-08T06:48:32;4.47;;;2.37;;
16193;SDS011;8204;53.582;10.080;2023-10-08T06:50:59;9.47;;;2.20;;
16193;SDS011;8204;53.582;10.080;2023-10-08T06:53:32;4.97;;;3.07;;
16193;SDS011;8204;53.582;10.080;2023-10-08T06:55:59;3.90;;;2.67;;
16193;SDS011;8204;53.582;10.080;2023-10-08T06:58:29;3.83;;;2.80;;
16193;SDS011;8204;53.582;10.080;2023-10-08T07:00:59;4.43;;;2.43;;
16193;SDS011;8204;53.582;10.080;2023-10-08T07:03:30;2.77;;;2.07;;
16193;SDS011;8204;53.582;10.080;2023-10-08T07:05:56;3.73;;;2.00;;
16193;SDS011;8204;53.582;10.080;2023-10-08T07:08:28;4.63;;;2.70;;
16193;SDS011;8204;53.582;10.080;2023-10-08T07:10:56;3.80;;;2.13;;
16193;SDS011;8204;53.582;10.080;2023-10-08T07:13:24;3.03;;;1.90;;
16193;SDS011;8204;53.582;10.080;2023-10-08T07:15:49;5.20;;;2.20;;
16193;SDS011;8204;53.582;10.080;2023-10-08T07:18:16;5.83;;;2.50;;
16193;SDS011;8204;53.582;10.080;2023-10-08T07:20:52;4.20;;;2.17;;
16193;SDS011;8204;53.582;10.080;2023-10-08T07:23:19;4.13;;;1.90;;
16193;SDS011;8204;53.582;10.080;2023-10-08T07:25:53;2.93;;;2.40;;
16193;SDS011;8204;53.582;10.080;2023-10-08T07:28:25;3.00;;;2.07;;
16193;SDS011;8204;53.582;10.080;2023-10-08T07:30:52;6.37;;;2.27;;
16193;SDS011;8204;53.582;10.080;2023-10-08T07:33:18;4.07;;;2.57;;
16193;SDS011;8204;53.582;10.080;2023-10-08T07:35:45;3.30;;;2.00;;
16193;SDS011;8204;53.582;10.080;2023-10-08T07:38:20;6.20;;;2.50;;
16193;SDS011;8204;53.582;10.080;2023-10-08T07:40:47;9.07;;;2.60;;
16193;SDS011;8204;53.582;10.080;2023-10-08T07:43:13;3.63;;;2.27;;
16193;SDS011;8204;53.582;10.080;2023-10-08T07:45:38;3.03;;;2.53;;
16193;SDS011;8204;53.582;10.080;2023-10-08T07:48:05;4.37;;;2.00;;
16193;SDS011;8204;53.582;10.080;2023-10-08T07:50:35;2.70;;;1.83;;
16193;SDS011;8204;53.582;10.080;2023-10-08T07:53:06;2.90;;;1.93;;
16193;SDS011;8204;53.582;10.080;2023-10-08T07:55:31;4.77;;;2.43;;
16193;SDS011;8204;53.582;10.080;2023-10-08T07:57:58;3.33;;;2.20;;
16193;SDS011;8204;53.582;10.080;2023-10-08T08:00:24;5.93;;;2.30;;
16193;SDS011;8204;53.582;10.080;2023-10-08T08:02:51;3.17;;;1.80;;
16193;SDS011;8204;53.582;10.080;2023-10-08T08:05:22;4.43;;;2.07;;
16193;SDS011;8204;53.582;10.080;2023-10-08T08:07:47;5.43;;;2.63;;
16193;SDS011;8204;53.582;10.080;2023-10-08T08:10:17;3.97;;;2.17;;
16193;SDS011;8204;53.582;10.080;2023-10-08T08:12:44;3.77;;;2.53;;
16193;SDS011;8204;53.582;10.080;2023-10-08T08:15:11;3.97;;;2.60;;
16193;SDS011;8204;53.582;10.080;2023-10-08T08:17:40;2.20;;;1.50;;
16193;SDS011;8204;53.582;10.080;2023-10-08T08:20:07;5.83;;;3.27;;
16193;SDS011;8204;53.582;10.080;2023-10-08T08:22:44;3.23;;;1.80;;
16193;SDS011;8204;53.582;10.080;2023-10-08T08:25:17;4.70;;;2.10;;
16193;SDS011;8204;53.582;10.080;2023-10-08T08:27:58;6.77;;;3.50;;
16193;SDS011;8204;53.582;10.080;2023-10-08T08:30:25;6.77;;;2.43;;
16193;SDS011;8204;53.582;10.080;2023-10-08T08:32:52;2.53;;;1.70;;
16193;SDS011;8204;53.582;10.080;2023-10-08T08:35:18;1.77;;;1.53;;
16193;SDS011;8204;53.582;10.080;2023-10-08T08:37:45;2.80;;;1.97;;
16193;SDS011;8204;53.582;10.080;2023-10-08T08:40:17;4.80;;;2.23;;
16193;SDS011;8204;53.582;10.080;2023-10-08T08:42:50;9.03;;;1.90;;
16193;SDS011;8204;53.582;10.080;2023-10-08T08:45:19;2.63;;;1.50;;
16193;SDS011;8204;53.582;10.080;2023-10-08T08:47:46;3.60;;;1.97;;
16193;SDS011;8204;53.582;10.080;2023-10-08T08:50:12;3.23;;;1.90;;
16193;SDS011;8204;53.582;10.080;2023-10-08T08:52:38;3.73;;;1.77;;
16193;SDS011;8204;53.582;10.080;2023-10-08T08:55:05;3.87;;;1.57;;
16193;SDS011;8204;53.582;10.080;2023-10-08T08:57:39;4.17;;;1.73;;
16193;SDS011;8204;53.582;10.080;2023-10-08T09:00:07;3.17;;;2.00;;
16193;SDS011;8204;53.582;10.080;2023-10-08T09:02:38;4.43;;;2.20;;
16193;SDS011;8204;53.582;10.080;2023-10-08T09:05:04;3.40;;;2.10;;
16193;SDS011;8204;53.582;10.080;2023-10-08T09:07:51;3.67;;;1.70;;
16193;SDS011;8204;53.582;10.080;2023-10-08T09:10:31;2.60;;;1.60;;
16193;SDS011;8204;53.582;10.080;2023-10-08T09:13:03;3.23;;;1.87;;
16193;SDS011;8204;53.582;10.080;2023-10-08T09:15:30;3.50;;;1.67;;
16193;SDS011;8204;53.582;10.080;2023-10-08T09:17:57;7.73;;;1.80;;
16193;SDS011;8204;53.582;10.080;2023-10-08T09:20:26;2.57;;;1.53;;
16193;SDS011;8204;53.582;10.080;2023-10-08T09:23:08;3.07;;;1.80;;
16193;SDS011;8204;53.582;10.080;2023-10-08T09:25:44;3.27;;;1.43;;
16193;SDS011;8204;53.582;10.080;2023-10-08T09:28:11;3.77;;;2.00;;
16193;SDS011;8204;53.582;10.080;2023-10-08T09:30:40;2.37;;;1.33;;
16193;SDS011;8204;53.582;10.080;2023-10-08T09:33:11;2.47;;;1.77;;
16193;SDS011;8204;53.582;10.080;2023-10-08T09:35:41;3.70;;;1.40;;
16193;SDS011;8204;53.582;10.080;2023-10-08T09:38:08;4.57;;;2.20;;
16193;SDS011;8204;53.582;10.080;2023-10-08T09:40:37;1.43;;;1.30;;
16193;SDS011;8204;53.582;10.080;2023-10-08T09:43:03;2.27;;;1.40;;
16193;SDS011;8204;53.582;10.080;2023-10-08T09:45:30;6.97;;;1.47;;
16193;SDS011;8204;53.582;10.080;2023-10-08T09:47:56;1.77;;;1.53;;
16193;SDS011;8204;53.582;10.080;2023-10-08T09:50:28;1.83;;;1.57;;
16193;SDS011;8204;53.582;10.080;2023-10-08T09:55:26;1.80;;;1.20;;
16193;SDS011;8204;53.582;10.080;2023-10-08T09:57:52;2.90;;;1.70;;
16193;SDS011;8204;53.582;10.080;2023-10-08T10:00:21;2.27;;;1.23;;
16193;SDS011;8204;53.582;10.080;2023-10-08T10:02:59;3.37;;;1.83;;
16193;SDS011;8204;53.582;10.080;2023-10-08T10:05:29;5.03;;;1.57;;
16193;SDS011;8204;53.582;10.080;2023-10-08T10:07:57;2.60;;;1.67;;
16193;SDS011;8204;53.582;10.080;2023-10-08T10:10:30;4.17;;;1.60;;
16193;SDS011;8204;53.582;10.080;2023-10-08T10:13:02;2.60;;;1.63;;
16193;SDS011;8204;53.582;10.080;2023-10-08T10:15:28;3.07;;;1.43;;
16193;SDS011;8204;53.582;10.080;2023-10-08T10:17:58;2.77;;;1.80;;
16193;SDS011;8204;53.582;10.080;2023-10-08T10:20:32;2.20;;;1.57;;
16193;SDS011;8204;53.582;10.080;2023-10-08T10:22:59;2.80;;;2.57;;
16193;SDS011;8204;53.582;10.080;2023-10-08T10:25:33;1.57;;;1.37;;
16193;SDS011;8204;53.582;10.080;2023-10-08T10:30:29;3.03;;;1.40;;
16193;SDS011;8204;53.582;10.080;2023-10-08T10:32:59;2.37;;;1.50;;
16193;SDS011;8204;53.582;10.080;2023-10-08T10:35:25;1.70;;;1.60;;
16193;SDS011;8204;53.582;10.080;2023-10-08T10:37:53;2.03;;;1.40;;
16193;SDS011;8204;53.582;10.080;2023-10-08T10:40:21;1.93;;;1.53;;
16193;SDS011;8204;53.582;10.080;2023-10-08T10:43:04;2.70;;;2.13;;
16193;SDS011;8204;53.582;10.080;2023-10-08T10:45:32;1.50;;;1.40;;
16193;SDS011;8204;53.582;10.080;2023-10-08T10:48:04;2.90;;;1.50;;
16193;SDS011;8204;53.582;10.080;2023-10-08T10:50:39;3.00;;;1.50;;
16193;SDS011;8204;53.582;10.080;2023-10-08T10:53:17;1.97;;;1.27;;
16193;SDS011;8204;53.582;10.080;2023-10-08T10:55:44;3.47;;;1.33;;
16193;SDS011;8204;53.582;10.080;2023-10-08T10:58:25;4.63;;;1.83;;
16193;SDS011;8204;53.582;10.080;2023-10-08T11:00:53;1.53;;;1.43;;
16193;SDS011;8204;53.582;10.080;2023-10-08T11:03:25;2.23;;;1.60;;
16193;SDS011;8204;53.582;10.080;2023-10-08T11:05:56;2.20;;;1.80;;
16193;SDS011;8204;53.582;10.080;2023-10-08T11:08:32;2.23;;;1.83;;
16193;SDS011;8204;53.582;10.080;2023-10-08T11:11:01;1.90;;;1.10;;
16193;SDS011;8204;53.582;10.080;2023-10-08T11:13:32;1.63;;;1.53;;
16193;SDS011;8204;53.582;10.080;2023-10-08T11:16:05;2.50;;;1.53;;
16193;SDS011;8204;53.582;10.080;2023-10-08T11:18:32;2.00;;;1.47;;
16193;SDS011;8204;53.582;10.080;2023-10-08T11:21:08;4.10;;;1.93;;
16193;SDS011;8204;53.582;10.080;2023-10-08T11:26:08;1.93;;;1.37;;
16193;SDS011;8204;53.582;10.080;2023-10-08T11:28:34;2.63;;;1.33;;
16193;SDS011;8204;53.582;10.080;2023-10-08T11:31:13;2.10;;;1.60;;
16193;SDS011;8204;53.582;10.080;2023-10-08T11:33:43;3.30;;;1.67;;
16193;SDS011;8204;53.582;10.080;2023-10-08T11:36:21;5.53;;;1.43;;
16193;SDS011;8204;53.582;10.080;2023-10-08T11:38:53;2.73;;;1.10;;
16193;SDS011;8204;53.582;10.080;2023-10-08T11:41:26;2.23;;;1.40;;
16193;SDS011;8204;53.582;10.080;2023-10-08T11:43:53;3.73;;;1.50;;
16193;SDS011;8204;53.582;10.080;2023-10-08T11:46:27;3.03;;;1.57;;
16193;SDS011;8204;53.582;10.080;2023-10-08T11:49:04;2.27;;;1.40;;
16193;SDS011;8204;53.582;10.080;2023-10-08T11:51:33;1.73;;;1.33;;
16193;SDS011;8204;53.582;10.080;2023-10-08T11:54:03;1.53;;;1.43;;
16193;SDS011;8204;53.582;10.080;2023-10-08T11:56:31;1.83;;;1.67;;
16193;SDS011;8204;53.582;10.080;2023-10-08T11:59:01;1.67;;;1.40;;
16193;SDS011;8204;53.582;10.080;2023-10-08T12:01:30;1.53;;;1.13;;
16193;SDS011;8204;53.582;10.080;2023-10-08T12:04:00;1.70;;;1.20;;
16193;SDS011;8204;53.582;10.080;2023-10-08T12:06:26;1.87;;;1.20;;
16193;SDS011;8204;53.582;10.080;2023-10-08T12:08:55;2.10;;;1.30;;
16193;SDS011;8204;53.582;10.080;2023-10-08T12:11:24;2.23;;;2.03;;
16193;SDS011;8204;53.582;10.080;2023-10-08T12:13:59;5.60;;;1.53;;
16193;SDS011;8204;53.582;10.080;2023-10-08T12:16:25;1.23;;;1.13;;
16193;SDS011;8204;53.582;10.080;2023-10-08T12:18:54;2.07;;;1.70;;
16193;SDS011;8204;53.582;10.080;2023-10-08T12:21:30;1.57;;;1.47;;
16193;SDS011;8204;53.582;10.080;2023-10-08T12:23:58;3.10;;;1.67;;
16193;SDS011;8204;53.582;10.080;2023-10-08T12:26:24;1.50;;;1.40;;
16193;SDS011;8204;53.582;10.080;2023-10-08T12:28:51;1.40;;;1.10;;
16193;SDS011;8204;53.582;10.080;2023-10-08T12:31:18;2.50;;;1.30;;
16193;SDS011;8204;53.582;10.080;2023-10-08T12:33:47;1.53;;;1.43;;
16193;SDS011;8204;53.582;10.080;2023-10-08T12:36:14;1.80;;;1.63;;
16193;SDS011;8204;53.582;10.080;2023-10-08T12:38:42;1.33;;;1.23;;
16193;SDS011;8204;53.582;10.080;2023-10-08T12:41:11;2.07;;;1.17;;
16193;SDS011;8204;53.582;10.080;2023-10-08T12:43:38;1.50;;;1.40;;
16193;SDS011;8204;53.582;10.080;2023-10-08T12:46:04;4.80;;;1.70;;
16193;SDS011;8204;53.582;10.080;2023-10-08T12:48:36;2.97;;;1.57;;
16193;SDS011;8204;53.582;10.080;2023-10-08T12:51:03;1.77;;;1.30;;
16193;SDS011;8204;53.582;10.080;2023-10-08T12:53:31;2.90;;;1.50;;
16193;SDS011;8204;53.582;10.080;2023-10-08T12:56:08;2.57;;;1.27;;
16193;SDS011;8204;53.582;10.080;2023-10-08T12:58:40;4.17;;;1.90;;
16193;SDS011;8204;53.582;10.080;2023-10-08T13:01:09;1.57;;;1.43;;
16193;SDS011;8204;53.582;10.080;2023-10-08T13:03:38;1.40;;;1.07;;
16193;SDS011;8204;53.582;10.080;2023-10-08T13:06:09;1.50;;;1.40;;
16193;SDS011;8204;53.582;10.080;2023-10-08T13:08:39;2.47;;;2.07;;
16193;SDS011;8204;53.582;10.080;2023-10-08T13:11:05;2.33;;;1.50;;
16193;SDS011;8204;53.582;10.080;2023-10-08T13:13:31;2.57;;;1.20;;
16193;SDS011;8204;53.582;10.080;2023-10-08T13:16:01;2.50;;;1.60;;
16193;SDS011;8204;53.582;10.080;2023-10-08T13:18:32;1.37;;;0.90;;
16193;SDS011;8204;53.582;10.080;2023-10-08T13:20:58;2.20;;;1.70;;
16193;SDS011;8204;53.582;10.080;2023-10-08T13:23:24;3.73;;;1.67;;
16193;SDS011;8204;53.582;10.080;2023-10-08T13:25:51;2.70;;;1.80;;
16193;SDS011;8204;53.582;10.080;2023-10-08T13:28:22;3.30;;;1.53;;
16193;SDS011;8204;53.582;10.080;2023-10-08T13:30:51;4.07;;;1.63;;
16193;SDS011;8204;53.582;10.080;2023-10-08T13:33:22;2.53;;;1.53;;
16193;SDS011;8204;53.582;10.080;2023-10-08T13:35:51;1.87;;;1.30;;
16193;SDS011;8204;53.582;10.080;2023-10-08T13:38:19;1.73;;;1.40;;
16193;SDS011;8204;53.582;10.080;2023-10-08T13:40:54;1.50;;;1.40;;
16193;SDS011;8204;53.582;10.080;2023-10-08T13:43:30;1.10;;;1.10;;
16193;SDS011;8204;53.582;10.080;2023-10-08T13:46:00;4.80;;;1.97;;
16193;SDS011;8204;53.582;10.080;2023-10-08T13:48:29;2.03;;;1.50;;
16193;SDS011;8204;53.582;10.080;2023-10-08T13:50:58;3.57;;;2.33;;
16193;SDS011;8204;53.582;10.080;2023-10-08T13:53:25;3.00;;;1.83;;
16193;SDS011;8204;53.582;10.080;2023-10-08T13:56:01;2.00;;;1.90;;
16193;SDS011;8204;53.582;10.080;2023-10-08T13:58:28;2.47;;;2.23;;
16193;SDS011;8204;53.582;10.080;2023-10-08T14:00:56;2.50;;;2.27;;
16193;SDS011;8204;53.582;10.080;2023-10-08T14:03:25;3.53;;;2.13;;
16193;SDS011;8204;53.582;10.080;2023-10-08T14:05:50;3.17;;;2.50;;
16193;SDS011;8204;53.582;10.080;2023-10-08T14:08:17;1.90;;;1.30;;
16193;SDS011;8204;53.582;10.080;2023-10-08T14:10:44;7.30;;;1.97;;
16193;SDS011;8204;53.582;10.080;2023-10-08T14:13:10;2.10;;;1.70;;
16193;SDS011;8204;53.582;10.080;2023-10-08T14:15:36;3.53;;;1.93;;
16193;SDS011;8204;53.582;10.080;2023-10-08T14:18:09;3.87;;;3.57;;
16193;SDS011;8204;53.582;10.080;2023-10-08T14:20:36;3.10;;;2.77;;
16193;SDS011;8204;53.582;10.080;2023-10-08T14:23:06;3.57;;;2.07;;
16193;SDS011;8204;53.582;10.080;2023-10-08T14:25:31;2.47;;;1.67;;
16193;SDS011;8204;53.582;10.080;2023-10-08T14:28:01;3.23;;;1.50;;
16193;SDS011;8204;53.582;10.080;2023-10-08T14:30:32;2.37;;;1.80;;
16193;SDS011;8204;53.582;10.080;2023-10-08T14:33:01;1.97;;;1.80;;
16193;SDS011;8204;53.582;10.080;2023-10-08T14:35:28;4.27;;;2.63;;
16193;SDS011;8204;53.582;10.080;2023-10-08T14:38:12;3.73;;;3.00;;
16193;SDS011;8204;53.582;10.080;2023-10-08T14:41:07;3.40;;;3.10;;
16193;SDS011;8204;53.582;10.080;2023-10-08T14:43:50;4.03;;;2.33;;
16193;SDS011;8204;53.582;10.080;2023-10-08T14:46:16;5.00;;;3.13;;
16193;SDS011;8204;53.582;10.080;2023-10-08T14:48:43;4.90;;;2.87;;
16193;SDS011;8204;53.582;10.080;2023-10-08T14:51:09;7.23;;;6.53;;
16193;SDS011;8204;53.582;10.080;2023-10-08T14:53:44;2.93;;;2.43;;
16193;SDS011;8204;53.582;10.080;2023-10-08T14:56:09;4.37;;;3.17;;
16193;SDS011;8204;53.582;10.080;2023-10-08T14:58:35;4.00;;;3.23;;
16193;SDS011;8204;53.582;10.080;2023-10-08T15:01:00;3.23;;;2.93;;
16193;SDS011;8204;53.582;10.080;2023-10-08T15:03:26;4.77;;;2.80;;
16193;SDS011;8204;53.582;10.080;2023-10-08T15:05:52;3.80;;;2.67;;
16193;SDS011;8204;53.582;10.080;2023-10-08T15:08:18;3.00;;;2.70;;
16193;SDS011;8204;53.582;10.080;2023-10-08T15:10:44;3.50;;;3.20;;
16193;SDS011;8204;53.582;10.080;2023-10-08T15:13:12;3.87;;;2.47;;
16193;SDS011;8204;53.582;10.080;2023-10-08T15:15:37;3.37;;;2.57;;
16193;SDS011;8204;53.582;10.080;2023-10-08T15:18:05;3.37;;;2.47;;
16193;SDS011;8204;53.582;10.080;2023-10-08T15:20:31;4.67;;;2.90;;